sensor_id;sensor_type;location;lat;lon;timestamp;temperature;humidity
60701;DHT22;46541;49.894;10.886;2022-08-24T00:00:33;20.10;99.90
60701;DHT22;46541;49.894;10.886;2022-08-24T00:03:00;20.10;99.90
60701;DHT22;46541;49.894;10.886;2022-08-24T00:05:28;20.10;99.90
60701;DHT22;46541;49.894;10.886;2022-08-24T00:07:55;20.10;99.90
60701;DHT22;46541;49.894;10.886;2022-08-24T00:10:22;20.10;99.90
60701;DHT22;46541;49.894;10.886;2022-08-24T00:12:49;20.10;99.90
60701;DHT22;46541;49.894;10.886;2022-08-24T00:15:17;20.10;99.90
60701;DHT22;46541;49.894;10.886;2022-08-24T00:17:44;20.00;99.90
60701;DHT22;46541;49.894;10.886;2022-08-24T00:20:11;20.00;99.90
60701;DHT22;46541;49.894;10.886;2022-08-24T00:22:39;20.00;99.90
60701;DHT22;46541;49.894;10.886;2022-08-24T00:25:09;20.00;99.90
60701;DHT22;46541;49.894;10.886;2022-08-24T00:27:37;19.90;99.90
60701;DHT22;46541;49.894;10.886;2022-08-24T00:30:08;19.90;99.90
60701;DHT22;46541;49.894;10.886;2022-08-24T00:32:36;19.80;99.90
60701;DHT22;46541;49.894;10.886;2022-08-24T00:35:05;19.80;99.90
60701;DHT22;46541;49.894;10.886;2022-08-24T00:37:33;19.80;99.90
60701;DHT22;46541;49.894;10.886;2022-08-24T00:40:02;19.80;99.90
60701;DHT22;46541;49.894;10.886;2022-08-24T00:42:29;19.80;99.90
60701;DHT22;46541;49.894;10.886;2022-08-24T00:44:56;19.80;99.90
60701;DHT22;46541;49.894;10.886;2022-08-24T00:47:28;19.80;99.90
60701;DHT22;46541;49.894;10.886;2022-08-24T00:50:03;19.80;99.90
60701;DHT22;46541;49.894;10.886;2022-08-24T00:52:41;19.70;99.90
60701;DHT22;46541;49.894;10.886;2022-08-24T00:55:18;19.80;99.90
60701;DHT22;46541;49.894;10.886;2022-08-24T00:57:47;19.70;99.90
60701;DHT22;46541;49.894;10.886;2022-08-24T01:00:22;19.60;99.90
60701;DHT22;46541;49.894;10.886;2022-08-24T01:02:53;19.60;99.90
60701;DHT22;46541;49.894;10.886;2022-08-24T01:05:21;19.60;99.90
60701;DHT22;46541;49.894;10.886;2022-08-24T01:07:48;19.60;99.90
60701;DHT22;46541;49.894;10.886;2022-08-24T01:10:20;19.60;99.90
60701;DHT22;46541;49.894;10.886;2022-08-24T01:12:48;19.50;99.90
60701;DHT22;46541;49.894;10.886;2022-08-24T01:15:32;19.50;99.90
60701;DHT22;46541;49.894;10.886;2022-08-24T01:17:59;19.50;99.90
60701;DHT22;46541;49.894;10.886;2022-08-24T01:20:47;19.40;99.90
60701;DHT22;46541;49.894;10.886;2022-08-24T01:23:31;19.40;99.90
60701;DHT22;46541;49.894;10.886;2022-08-24T01:26:04;19.40;99.90
60701;DHT22;46541;49.894;10.886;2022-08-24T01:28:31;19.30;99.90
60701;DHT22;46541;49.894;10.886;2022-08-24T01:31:02;19.30;99.90
60701;DHT22;46541;49.894;10.886;2022-08-24T01:33:30;19.30;99.90
60701;DHT22;46541;49.894;10.886;2022-08-24T01:36:07;19.30;99.90
60701;DHT22;46541;49.894;10.886;2022-08-24T01:38:35;19.30;99.90
60701;DHT22;46541;49.894;10.886;2022-08-24T01:41:03;19.30;99.90
60701;DHT22;46541;49.894;10.886;2022-08-24T01:43:30;19.20;99.90
60701;DHT22;46541;49.894;10.886;2022-08-24T01:46:02;19.30;99.90
60701;DHT22;46541;49.894;10.886;2022-08-24T01:48:29;19.20;99.90
60701;DHT22;46541;49.894;10.886;2022-08-24T01:50:57;19.20;99.90
60701;DHT22;46541;49.894;10.886;2022-08-24T01:53:24;19.20;99.90
60701;DHT22;46541;49.894;10.886;2022-08-24T01:55:50;19.20;99.90
60701;DHT22;46541;49.894;10.886;2022-08-24T01:58:17;19.10;99.90
60701;DHT22;46541;49.894;10.886;2022-08-24T02:00:45;19.00;99.90
60701;DHT22;46541;49.894;10.886;2022-08-24T02:03:11;19.10;99.90
60701;DHT22;46541;49.894;10.886;2022-08-24T02:05:38;19.00;99.90
60701;DHT22;46541;49.894;10.886;2022-08-24T02:08:07;19.00;99.90
60701;DHT22;46541;49.894;10.886;2022-08-24T02:10:34;19.00;99.90
60701;DHT22;46541;49.894;10.886;2022-08-24T02:13:02;19.00;99.90
60701;DHT22;46541;49.894;10.886;2022-08-24T02:15:35;18.90;99.90
60701;DHT22;46541;49.894;10.886;2022-08-24T02:18:07;18.90;99.90
60701;DHT22;46541;49.894;10.886;2022-08-24T02:20:41;18.90;99.90
60701;DHT22;46541;49.894;10.886;2022-08-24T02:23:08;18.90;99.90
60701;DHT22;46541;49.894;10.886;2022-08-24T02:25:35;18.90;99.90
60701;DHT22;46541;49.894;10.886;2022-08-24T02:28:02;18.90;99.90
60701;DHT22;46541;49.894;10.886;2022-08-24T02:30:30;18.90;99.90
60701;DHT22;46541;49.894;10.886;2022-08-24T02:32:58;18.90;99.90
60701;DHT22;46541;49.894;10.886;2022-08-24T02:35:26;18.80;99.90
60701;DHT22;46541;49.894;10.886;2022-08-24T02:37:56;18.90;99.90
60701;DHT22;46541;49.894;10.886;2022-08-24T02:40:23;18.80;99.90
60701;DHT22;46541;49.894;10.886;2022-08-24T02:42:50;18.70;99.90
60701;DHT22;46541;49.894;10.886;2022-08-24T02:45:17;18.60;99.90
60701;DHT22;46541;49.894;10.886;2022-08-24T02:47:44;18.60;99.90
60701;DHT22;46541;49.894;10.886;2022-08-24T02:50:13;18.60;99.90
60701;DHT22;46541;49.894;10.886;2022-08-24T02:52:41;18.60;99.90
60701;DHT22;46541;49.894;10.886;2022-08-24T02:55:12;18.60;99.90
60701;DHT22;46541;49.894;10.886;2022-08-24T02:57:39;18.60;99.90
60701;DHT22;46541;49.894;10.886;2022-08-24T03:00:10;18.50;99.90
60701;DHT22;46541;49.894;10.886;2022-08-24T03:02:38;18.60;99.90
60701;DHT22;46541;49.894;10.886;2022-08-24T03:05:07;18.50;99.90
60701;DHT22;46541;49.894;10.886;2022-08-24T03:07:35;18.50;99.90
60701;DHT22;46541;49.894;10.886;2022-08-24T03:10:04;18.40;99.90
60701;DHT22;46541;49.894;10.886;2022-08-24T03:12:32;18.40;99.90
60701;DHT22;46541;49.894;10.886;2022-08-24T03:15:00;18.40;99.90
60701;DHT22;46541;49.894;10.886;2022-08-24T03:17:30;18.40;99.90
60701;DHT22;46541;49.894;10.886;2022-08-24T03:20:00;18.40;99.90
60701;DHT22;46541;49.894;10.886;2022-08-24T03:22:27;18.40;99.90
60701;DHT22;46541;49.894;10.886;2022-08-24T03:24:54;18.40;99.90
60701;DHT22;46541;49.894;10.886;2022-08-24T03:27:21;18.40;99.90
60701;DHT22;46541;49.894;10.886;2022-08-24T03:29:48;18.40;99.90
60701;DHT22;46541;49.894;10.886;2022-08-24T03:32:15;18.30;99.90
60701;DHT22;46541;49.894;10.886;2022-08-24T03:34:43;18.30;99.90
60701;DHT22;46541;49.894;10.886;2022-08-24T03:37:10;18.20;99.90
60701;DHT22;46541;49.894;10.886;2022-08-24T03:39:38;18.20;99.90
60701;DHT22;46541;49.894;10.886;2022-08-24T03:42:05;18.20;99.90
60701;DHT22;46541;49.894;10.886;2022-08-24T03:44:32;18.20;99.90
60701;DHT22;46541;49.894;10.886;2022-08-24T03:46:59;18.20;99.90
60701;DHT22;46541;49.894;10.886;2022-08-24T03:49:26;18.20;99.90
60701;DHT22;46541;49.894;10.886;2022-08-24T03:51:53;18.20;99.90
60701;DHT22;46541;49.894;10.886;2022-08-24T03:54:20;18.20;99.90
60701;DHT22;46541;49.894;10.886;2022-08-24T03:56:46;18.10;99.90
60701;DHT22;46541;49.894;10.886;2022-08-24T03:59:13;18.10;99.90
60701;DHT22;46541;49.894;10.886;2022-08-24T04:01:45;18.10;99.90
60701;DHT22;46541;49.894;10.886;2022-08-24T04:04:12;18.10;99.90
60701;DHT22;46541;49.894;10.886;2022-08-24T04:06:39;18.00;99.90
60701;DHT22;46541;49.894;10.886;2022-08-24T04:09:10;18.00;99.90
60701;DHT22;46541;49.894;10.886;2022-08-24T04:11:37;17.90;99.90
60701;DHT22;46541;49.894;10.886;2022-08-24T04:14:07;17.90;99.90
60701;DHT22;46541;49.894;10.886;2022-08-24T04:16:46;17.80;99.90
60701;DHT22;46541;49.894;10.886;2022-08-24T04:19:23;17.80;99.90
60701;DHT22;46541;49.894;10.886;2022-08-24T04:21:50;17.80;99.90
60701;DHT22;46541;49.894;10.886;2022-08-24T04:24:18;17.80;99.90
60701;DHT22;46541;49.894;10.886;2022-08-24T04:26:46;17.80;99.90
60701;DHT22;46541;49.894;10.886;2022-08-24T04:29:14;17.80;99.90
60701;DHT22;46541;49.894;10.886;2022-08-24T04:31:42;17.80;99.90
60701;DHT22;46541;49.894;10.886;2022-08-24T04:34:10;17.80;99.90
60701;DHT22;46541;49.894;10.886;2022-08-24T04:36:42;17.80;99.90
60701;DHT22;46541;49.894;10.886;2022-08-24T04:39:10;17.80;99.90
60701;DHT22;46541;49.894;10.886;2022-08-24T04:41:37;17.80;99.90
60701;DHT22;46541;49.894;10.886;2022-08-24T04:44:04;17.80;99.90
60701;DHT22;46541;49.894;10.886;2022-08-24T04:46:31;17.80;99.90
60701;DHT22;46541;49.894;10.886;2022-08-24T04:48:58;17.70;99.90
60701;DHT22;46541;49.894;10.886;2022-08-24T04:51:24;17.80;99.90
60701;DHT22;46541;49.894;10.886;2022-08-24T04:53:51;17.70;99.90
60701;DHT22;46541;49.894;10.886;2022-08-24T04:56:21;17.70;99.90
60701;DHT22;46541;49.894;10.886;2022-08-24T04:58:50;17.70;99.90
60701;DHT22;46541;49.894;10.886;2022-08-24T05:01:21;17.70;99.90
60701;DHT22;46541;49.894;10.886;2022-08-24T05:03:51;17.70;99.90
60701;DHT22;46541;49.894;10.886;2022-08-24T05:06:22;17.70;99.90
60701;DHT22;46541;49.894;10.886;2022-08-24T05:08:49;17.70;99.90
60701;DHT22;46541;49.894;10.886;2022-08-24T05:11:18;17.70;99.90
60701;DHT22;46541;49.894;10.886;2022-08-24T05:13:45;17.70;99.90
60701;DHT22;46541;49.894;10.886;2022-08-24T05:16:16;17.80;99.90
60701;DHT22;46541;49.894;10.886;2022-08-24T05:18:44;17.80;99.90
60701;DHT22;46541;49.894;10.886;2022-08-24T05:21:17;17.70;99.90
60701;DHT22;46541;49.894;10.886;2022-08-24T05:23:48;17.80;99.90
60701;DHT22;46541;49.894;10.886;2022-08-24T05:26:21;17.80;99.90
60701;DHT22;46541;49.894;10.886;2022-08-24T05:28:55;17.70;99.90
60701;DHT22;46541;49.894;10.886;2022-08-24T05:31:25;17.80;99.90
60701;DHT22;46541;49.894;10.886;2022-08-24T05:33:53;17.80;99.90
60701;DHT22;46541;49.894;10.886;2022-08-24T05:36:29;17.80;99.90
60701;DHT22;46541;49.894;10.886;2022-08-24T05:38:57;17.80;99.90
60701;DHT22;46541;49.894;10.886;2022-08-24T05:41:26;17.80;99.90
60701;DHT22;46541;49.894;10.886;2022-08-24T05:43:53;17.90;99.90
60701;DHT22;46541;49.894;10.886;2022-08-24T05:46:20;17.90;99.90
60701;DHT22;46541;49.894;10.886;2022-08-24T05:48:47;18.00;99.90
60701;DHT22;46541;49.894;10.886;2022-08-24T05:51:19;18.00;99.90
60701;DHT22;46541;49.894;10.886;2022-08-24T05:53:46;18.00;99.90
60701;DHT22;46541;49.894;10.886;2022-08-24T05:56:15;18.00;99.90
60701;DHT22;46541;49.894;10.886;2022-08-24T05:58:43;18.10;99.90
60701;DHT22;46541;49.894;10.886;2022-08-24T06:01:16;18.10;99.90
60701;DHT22;46541;49.894;10.886;2022-08-24T06:03:44;18.20;99.90
60701;DHT22;46541;49.894;10.886;2022-08-24T06:06:11;18.20;99.90
60701;DHT22;46541;49.894;10.886;2022-08-24T06:08:41;18.30;99.90
60701;DHT22;46541;49.894;10.886;2022-08-24T06:11:09;18.30;99.90
60701;DHT22;46541;49.894;10.886;2022-08-24T06:13:36;18.40;99.90
60701;DHT22;46541;49.894;10.886;2022-08-24T06:16:08;18.50;99.90
60701;DHT22;46541;49.894;10.886;2022-08-24T06:18:52;18.50;99.90
60701;DHT22;46541;49.894;10.886;2022-08-24T06:21:23;18.60;99.90
60701;DHT22;46541;49.894;10.886;2022-08-24T06:23:54;18.70;99.90
60701;DHT22;46541;49.894;10.886;2022-08-24T06:26:22;18.80;99.90
60701;DHT22;46541;49.894;10.886;2022-08-24T06:29:08;18.90;99.90
60701;DHT22;46541;49.894;10.886;2022-08-24T06:31:37;19.00;99.90
60701;DHT22;46541;49.894;10.886;2022-08-24T06:34:08;19.10;99.90
60701;DHT22;46541;49.894;10.886;2022-08-24T06:36:36;19.20;99.90
60701;DHT22;46541;49.894;10.886;2022-08-24T06:39:05;19.30;99.90
60701;DHT22;46541;49.894;10.886;2022-08-24T06:41:36;19.50;99.90
60701;DHT22;46541;49.894;10.886;2022-08-24T06:44:04;19.60;99.90
60701;DHT22;46541;49.894;10.886;2022-08-24T06:46:31;19.70;99.90
60701;DHT22;46541;49.894;10.886;2022-08-24T06:48:59;19.80;99.90
60701;DHT22;46541;49.894;10.886;2022-08-24T06:51:26;19.80;99.90
60701;DHT22;46541;49.894;10.886;2022-08-24T06:53:53;19.90;99.90
60701;DHT22;46541;49.894;10.886;2022-08-24T06:56:24;20.10;99.90
60701;DHT22;46541;49.894;10.886;2022-08-24T06:58:51;20.20;99.90
60701;DHT22;46541;49.894;10.886;2022-08-24T07:01:20;20.30;99.90
60701;DHT22;46541;49.894;10.886;2022-08-24T07:03:48;20.40;99.90
60701;DHT22;46541;49.894;10.886;2022-08-24T07:06:15;20.50;99.90
60701;DHT22;46541;49.894;10.886;2022-08-24T07:08:42;20.60;99.90
60701;DHT22;46541;49.894;10.886;2022-08-24T07:11:10;20.70;99.90
60701;DHT22;46541;49.894;10.886;2022-08-24T07:13:40;20.80;99.90
60701;DHT22;46541;49.894;10.886;2022-08-24T07:16:07;20.90;99.90
60701;DHT22;46541;49.894;10.886;2022-08-24T07:18:36;21.10;99.90
60701;DHT22;46541;49.894;10.886;2022-08-24T07:21:06;21.20;99.90
60701;DHT22;46541;49.894;10.886;2022-08-24T07:23:34;21.20;99.90
60701;DHT22;46541;49.894;10.886;2022-08-24T07:26:11;21.30;99.90
60701;DHT22;46541;49.894;10.886;2022-08-24T07:28:46;21.50;99.90
60701;DHT22;46541;49.894;10.886;2022-08-24T07:31:13;21.70;99.90
60701;DHT22;46541;49.894;10.886;2022-08-24T07:33:41;21.80;99.90
60701;DHT22;46541;49.894;10.886;2022-08-24T07:36:08;21.90;99.90
60701;DHT22;46541;49.894;10.886;2022-08-24T07:38:35;22.10;99.90
60701;DHT22;46541;49.894;10.886;2022-08-24T07:41:02;22.20;99.90
60701;DHT22;46541;49.894;10.886;2022-08-24T07:43:48;22.30;99.90
60701;DHT22;46541;49.894;10.886;2022-08-24T07:46:15;22.40;99.90
60701;DHT22;46541;49.894;10.886;2022-08-24T07:48:42;22.50;99.90
60701;DHT22;46541;49.894;10.886;2022-08-24T07:51:13;22.60;99.90
60701;DHT22;46541;49.894;10.886;2022-08-24T07:53:41;22.80;99.90
60701;DHT22;46541;49.894;10.886;2022-08-24T07:56:19;22.90;99.90
60701;DHT22;46541;49.894;10.886;2022-08-24T07:58:46;23.10;99.90
60701;DHT22;46541;49.894;10.886;2022-08-24T08:01:13;23.20;99.90
60701;DHT22;46541;49.894;10.886;2022-08-24T08:03:41;23.40;99.90
60701;DHT22;46541;49.894;10.886;2022-08-24T08:06:08;23.50;99.90
60701;DHT22;46541;49.894;10.886;2022-08-24T08:08:42;23.60;99.90
60701;DHT22;46541;49.894;10.886;2022-08-24T08:11:10;23.80;99.90
60701;DHT22;46541;49.894;10.886;2022-08-24T08:13:37;23.80;99.90
60701;DHT22;46541;49.894;10.886;2022-08-24T08:16:09;24.00;99.90
60701;DHT22;46541;49.894;10.886;2022-08-24T08:18:36;24.00;99.90
60701;DHT22;46541;49.894;10.886;2022-08-24T08:21:04;24.20;99.90
60701;DHT22;46541;49.894;10.886;2022-08-24T08:23:31;24.30;99.90
60701;DHT22;46541;49.894;10.886;2022-08-24T08:26:18;24.50;99.90
60701;DHT22;46541;49.894;10.886;2022-08-24T08:28:46;24.60;99.90
60701;DHT22;46541;49.894;10.886;2022-08-24T08:31:13;24.70;99.90
60701;DHT22;46541;49.894;10.886;2022-08-24T08:33:39;24.80;99.90
60701;DHT22;46541;49.894;10.886;2022-08-24T08:36:10;25.00;99.90
60701;DHT22;46541;49.894;10.886;2022-08-24T08:38:38;25.00;99.90
60701;DHT22;46541;49.894;10.886;2022-08-24T08:43:46;25.30;99.80
60701;DHT22;46541;49.894;10.886;2022-08-24T08:57:44;25.50;98.30
60701;DHT22;46541;49.894;10.886;2022-08-24T09:00:21;25.80;98.50
60701;DHT22;46541;49.894;10.886;2022-08-24T09:06:01;26.00;97.90
60701;DHT22;46541;49.894;10.886;2022-08-24T09:22:42;27.10;95.30
60701;DHT22;46541;49.894;10.886;2022-08-24T09:25:56;27.30;95.20
60701;DHT22;46541;49.894;10.886;2022-08-24T09:33:21;27.50;93.90
60701;DHT22;46541;49.894;10.886;2022-08-24T09:36:08;27.70;93.40
60701;DHT22;46541;49.894;10.886;2022-08-24T09:44:37;27.90;92.60
60701;DHT22;46541;49.894;10.886;2022-08-24T09:49:59;28.00;91.30
60701;DHT22;46541;49.894;10.886;2022-08-24T10:00:46;28.40;90.10
60701;DHT22;46541;49.894;10.886;2022-08-24T10:03:51;28.60;89.40
60701;DHT22;46541;49.894;10.886;2022-08-24T10:25:29;28.60;87.50
60701;DHT22;46541;49.894;10.886;2022-08-24T10:31:04;28.90;84.70
60701;DHT22;46541;49.894;10.886;2022-08-24T10:49:01;28.90;82.00
60701;DHT22;46541;49.894;10.886;2022-08-24T10:51:33;29.00;80.20
60701;DHT22;46541;49.894;10.886;2022-08-24T10:54:11;29.30;79.80
60701;DHT22;46541;49.894;10.886;2022-08-24T10:56:41;29.30;78.90
60701;DHT22;46541;49.894;10.886;2022-08-24T10:59:23;29.40;79.50
60701;DHT22;46541;49.894;10.886;2022-08-24T11:04:36;29.30;77.90
60701;DHT22;46541;49.894;10.886;2022-08-24T11:07:20;29.30;76.70
60701;DHT22;46541;49.894;10.886;2022-08-24T11:09:57;29.30;76.40
60701;DHT22;46541;49.894;10.886;2022-08-24T11:12:31;29.50;76.90
60701;DHT22;46541;49.894;10.886;2022-08-24T11:15:23;29.50;73.60
60701;DHT22;46541;49.894;10.886;2022-08-24T11:17:58;29.60;73.50
60701;DHT22;46541;49.894;10.886;2022-08-24T11:23:03;29.50;74.40
60701;DHT22;46541;49.894;10.886;2022-08-24T11:25:34;29.80;73.50
60701;DHT22;46541;49.894;10.886;2022-08-24T11:28:07;29.90;74.20
60701;DHT22;46541;49.894;10.886;2022-08-24T11:30:40;30.00;71.20
60701;DHT22;46541;49.894;10.886;2022-08-24T11:36:21;30.20;70.80
60701;DHT22;46541;49.894;10.886;2022-08-24T11:54:04;30.50;67.00
60701;DHT22;46541;49.894;10.886;2022-08-24T12:00:05;30.60;66.30
60701;DHT22;46541;49.894;10.886;2022-08-24T12:08:17;30.70;65.20
60701;DHT22;46541;49.894;10.886;2022-08-24T12:10:50;30.50;65.90
60701;DHT22;46541;49.894;10.886;2022-08-24T12:21:17;30.80;65.00
60701;DHT22;46541;49.894;10.886;2022-08-24T12:23:49;30.80;66.30
60701;DHT22;46541;49.894;10.886;2022-08-24T12:29:03;30.30;65.40
60701;DHT22;46541;49.894;10.886;2022-08-24T12:31:38;29.90;66.40
60701;DHT22;46541;49.894;10.886;2022-08-24T12:34:11;29.60;66.20
60701;DHT22;46541;49.894;10.886;2022-08-24T12:39:16;29.00;67.50
60701;DHT22;46541;49.894;10.886;2022-08-24T12:41:48;28.90;68.90
60701;DHT22;46541;49.894;10.886;2022-08-24T12:44:17;29.00;67.80
60701;DHT22;46541;49.894;10.886;2022-08-24T12:46:51;29.00;67.50
60701;DHT22;46541;49.894;10.886;2022-08-24T12:52:40;29.10;66.20
60701;DHT22;46541;49.894;10.886;2022-08-24T12:58:10;29.10;66.60
60701;DHT22;46541;49.894;10.886;2022-08-24T13:01:04;29.20;67.50
60701;DHT22;46541;49.894;10.886;2022-08-24T13:03:35;29.20;66.90
60701;DHT22;46541;49.894;10.886;2022-08-24T13:06:16;29.30;66.90
60701;DHT22;46541;49.894;10.886;2022-08-24T13:08:46;29.30;66.70
60701;DHT22;46541;49.894;10.886;2022-08-24T13:11:28;29.20;65.00
60701;DHT22;46541;49.894;10.886;2022-08-24T13:29:53;28.80;66.90
60701;DHT22;46541;49.894;10.886;2022-08-24T13:32:38;28.80;65.00
60701;DHT22;46541;49.894;10.886;2022-08-24T13:38:48;28.70;64.80
60701;DHT22;46541;49.894;10.886;2022-08-24T13:44:11;28.70;64.70
60701;DHT22;46541;49.894;10.886;2022-08-24T13:46:59;28.80;64.20
60701;DHT22;46541;49.894;10.886;2022-08-24T13:55:06;29.50;63.80
60701;DHT22;46541;49.894;10.886;2022-08-24T13:57:44;29.60;62.50
60701;DHT22;46541;49.894;10.886;2022-08-24T14:05:46;29.60;62.10
60701;DHT22;46541;49.894;10.886;2022-08-24T14:16:27;29.30;61.40
60701;DHT22;46541;49.894;10.886;2022-08-24T14:24:39;28.70;61.50
60701;DHT22;46541;49.894;10.886;2022-08-24T14:44:21;28.60;62.70
60701;DHT22;46541;49.894;10.886;2022-08-24T14:47:07;28.70;63.00
60701;DHT22;46541;49.894;10.886;2022-08-24T15:04:18;28.80;63.50
60701;DHT22;46541;49.894;10.886;2022-08-24T15:07:24;28.70;60.10
60701;DHT22;46541;49.894;10.886;2022-08-24T15:09:53;28.60;60.70
60701;DHT22;46541;49.894;10.886;2022-08-24T15:12:43;28.60;60.50
60701;DHT22;46541;49.894;10.886;2022-08-24T15:15:23;28.50;61.30
60701;DHT22;46541;49.894;10.886;2022-08-24T15:23:36;28.40;61.40
60701;DHT22;46541;49.894;10.886;2022-08-24T15:26:32;28.40;60.60
60701;DHT22;46541;49.894;10.886;2022-08-24T15:29:16;28.40;61.20
60701;DHT22;46541;49.894;10.886;2022-08-24T15:34:34;28.30;59.40
60701;DHT22;46541;49.894;10.886;2022-08-24T15:37:01;28.30;60.20
60701;DHT22;46541;49.894;10.886;2022-08-24T15:39:28;28.30;60.10
60701;DHT22;46541;49.894;10.886;2022-08-24T15:41:56;28.30;60.30
60701;DHT22;46541;49.894;10.886;2022-08-24T15:44:28;28.30;60.10
60701;DHT22;46541;49.894;10.886;2022-08-24T15:47:04;28.40;60.10
60701;DHT22;46541;49.894;10.886;2022-08-24T15:49:55;28.50;63.50
60701;DHT22;46541;49.894;10.886;2022-08-24T15:55:06;28.80;64.30
60701;DHT22;46541;49.894;10.886;2022-08-24T15:57:38;28.90;65.50
60701;DHT22;46541;49.894;10.886;2022-08-24T16:00:12;28.90;65.30
60701;DHT22;46541;49.894;10.886;2022-08-24T16:02:40;28.90;67.20
60701;DHT22;46541;49.894;10.886;2022-08-24T16:08:07;28.80;68.50
60701;DHT22;46541;49.894;10.886;2022-08-24T16:10:51;28.70;68.70
60701;DHT22;46541;49.894;10.886;2022-08-24T16:15:46;28.50;69.90
60701;DHT22;46541;49.894;10.886;2022-08-24T16:18:16;28.30;70.40
60701;DHT22;46541;49.894;10.886;2022-08-24T16:20:44;28.20;70.90
60701;DHT22;46541;49.894;10.886;2022-08-24T16:23:27;28.00;71.00
60701;DHT22;46541;49.894;10.886;2022-08-24T16:26:16;27.90;71.40
60701;DHT22;46541;49.894;10.886;2022-08-24T16:28:45;27.80;71.80
60701;DHT22;46541;49.894;10.886;2022-08-24T16:31:52;27.70;72.00
60701;DHT22;46541;49.894;10.886;2022-08-24T16:34:30;27.60;72.40
60701;DHT22;46541;49.894;10.886;2022-08-24T16:36:58;27.50;71.90
60701;DHT22;46541;49.894;10.886;2022-08-24T16:39:25;27.50;72.00
60701;DHT22;46541;49.894;10.886;2022-08-24T16:41:57;27.50;72.70
60701;DHT22;46541;49.894;10.886;2022-08-24T16:44:28;27.40;73.20
60701;DHT22;46541;49.894;10.886;2022-08-24T16:46:56;27.30;73.30
60701;DHT22;46541;49.894;10.886;2022-08-24T16:49:23;27.30;73.30
60701;DHT22;46541;49.894;10.886;2022-08-24T16:51:50;27.20;73.50
60701;DHT22;46541;49.894;10.886;2022-08-24T16:54:18;27.20;73.70
60701;DHT22;46541;49.894;10.886;2022-08-24T16:56:45;27.20;74.10
60701;DHT22;46541;49.894;10.886;2022-08-24T16:59:17;27.20;73.70
60701;DHT22;46541;49.894;10.886;2022-08-24T17:01:45;27.10;74.50
60701;DHT22;46541;49.894;10.886;2022-08-24T17:04:14;27.10;75.30
60701;DHT22;46541;49.894;10.886;2022-08-24T17:06:41;27.10;75.90
60701;DHT22;46541;49.894;10.886;2022-08-24T17:09:08;27.00;76.20
60701;DHT22;46541;49.894;10.886;2022-08-24T17:11:35;27.00;77.00
60701;DHT22;46541;49.894;10.886;2022-08-24T17:14:03;26.90;76.90
60701;DHT22;46541;49.894;10.886;2022-08-24T17:16:31;26.90;77.30
60701;DHT22;46541;49.894;10.886;2022-08-24T17:18:58;26.80;77.60
60701;DHT22;46541;49.894;10.886;2022-08-24T17:21:25;26.80;78.30
60701;DHT22;46541;49.894;10.886;2022-08-24T17:23:52;26.70;78.50
60701;DHT22;46541;49.894;10.886;2022-08-24T17:26:19;26.60;78.40
60701;DHT22;46541;49.894;10.886;2022-08-24T17:28:48;26.60;78.70
60701;DHT22;46541;49.894;10.886;2022-08-24T17:31:17;26.50;78.40
60701;DHT22;46541;49.894;10.886;2022-08-24T17:33:44;26.50;78.30
60701;DHT22;46541;49.894;10.886;2022-08-24T17:36:11;26.40;78.50
60701;DHT22;46541;49.894;10.886;2022-08-24T17:38:46;26.40;78.50
60701;DHT22;46541;49.894;10.886;2022-08-24T17:41:21;26.40;79.00
60701;DHT22;46541;49.894;10.886;2022-08-24T17:43:48;26.30;79.40
60701;DHT22;46541;49.894;10.886;2022-08-24T17:46:16;26.30;80.80
60701;DHT22;46541;49.894;10.886;2022-08-24T17:48:45;26.20;80.90
60701;DHT22;46541;49.894;10.886;2022-08-24T17:51:12;26.20;81.10
60701;DHT22;46541;49.894;10.886;2022-08-24T17:53:40;26.10;82.10
60701;DHT22;46541;49.894;10.886;2022-08-24T17:56:08;26.00;81.40
60701;DHT22;46541;49.894;10.886;2022-08-24T17:58:35;26.00;81.70
60701;DHT22;46541;49.894;10.886;2022-08-24T18:01:23;25.90;82.00
60701;DHT22;46541;49.894;10.886;2022-08-24T18:03:50;25.90;82.40
60701;DHT22;46541;49.894;10.886;2022-08-24T18:06:18;25.90;82.40
60701;DHT22;46541;49.894;10.886;2022-08-24T18:08:46;25.80;83.00
60701;DHT22;46541;49.894;10.886;2022-08-24T18:11:13;25.80;83.30
60701;DHT22;46541;49.894;10.886;2022-08-24T18:13:41;25.70;83.50
60701;DHT22;46541;49.894;10.886;2022-08-24T18:16:13;25.60;83.40
60701;DHT22;46541;49.894;10.886;2022-08-24T18:18:42;25.60;83.70
60701;DHT22;46541;49.894;10.886;2022-08-24T18:21:09;25.60;84.40
60701;DHT22;46541;49.894;10.886;2022-08-24T18:23:36;25.60;84.30
60701;DHT22;46541;49.894;10.886;2022-08-24T18:26:09;25.50;84.30
60701;DHT22;46541;49.894;10.886;2022-08-24T18:28:36;25.50;84.80
60701;DHT22;46541;49.894;10.886;2022-08-24T18:31:08;25.40;84.40
60701;DHT22;46541;49.894;10.886;2022-08-24T18:33:35;25.40;84.90
60701;DHT22;46541;49.894;10.886;2022-08-24T18:36:03;25.30;85.40
60701;DHT22;46541;49.894;10.886;2022-08-24T18:38:30;25.30;85.70
60701;DHT22;46541;49.894;10.886;2022-08-24T18:40:59;25.30;86.30
60701;DHT22;46541;49.894;10.886;2022-08-24T18:43:26;25.20;85.90
60701;DHT22;46541;49.894;10.886;2022-08-24T18:45:54;25.20;86.40
60701;DHT22;46541;49.894;10.886;2022-08-24T18:48:21;25.20;86.90
60701;DHT22;46541;49.894;10.886;2022-08-24T18:50:49;25.10;86.70
60701;DHT22;46541;49.894;10.886;2022-08-24T18:53:16;25.10;87.10
60701;DHT22;46541;49.894;10.886;2022-08-24T18:55:43;25.00;88.20
60701;DHT22;46541;49.894;10.886;2022-08-24T18:58:13;25.00;88.20
60701;DHT22;46541;49.894;10.886;2022-08-24T19:00:40;24.90;88.30
60701;DHT22;46541;49.894;10.886;2022-08-24T19:03:09;24.90;88.60
60701;DHT22;46541;49.894;10.886;2022-08-24T19:05:38;24.80;89.10
60701;DHT22;46541;49.894;10.886;2022-08-24T19:08:05;24.80;89.30
60701;DHT22;46541;49.894;10.886;2022-08-24T19:10:35;24.80;90.20
60701;DHT22;46541;49.894;10.886;2022-08-24T19:13:07;24.70;90.20
60701;DHT22;46541;49.894;10.886;2022-08-24T19:15:35;24.60;90.40
60701;DHT22;46541;49.894;10.886;2022-08-24T19:18:07;24.60;90.30
60701;DHT22;46541;49.894;10.886;2022-08-24T19:20:39;24.60;90.30
60701;DHT22;46541;49.894;10.886;2022-08-24T19:23:17;24.60;90.50
60701;DHT22;46541;49.894;10.886;2022-08-24T19:25:44;24.50;90.60
60701;DHT22;46541;49.894;10.886;2022-08-24T19:28:12;24.50;90.90
60701;DHT22;46541;49.894;10.886;2022-08-24T19:30:39;24.40;90.90
60701;DHT22;46541;49.894;10.886;2022-08-24T19:33:07;24.40;91.20
60701;DHT22;46541;49.894;10.886;2022-08-24T19:35:40;24.40;91.20